createdAt,value
2022-10-23T00:01:29.451Z,13.00
2022-10-23T00:03:59.812Z,13.00
2022-10-23T00:06:31.012Z,13.00
2022-10-23T00:08:59.889Z,13.00
2022-10-23T00:11:31.660Z,13.10
2022-10-23T00:14:03.026Z,13.00
2022-10-23T00:16:31.759Z,12.80
2022-10-23T00:18:59.796Z,12.70
2022-10-23T00:21:29.244Z,12.80
2022-10-23T00:23:57.420Z,12.80
2022-10-23T00:26:27.485Z,12.80
2022-10-23T00:28:56.015Z,12.80
2022-10-23T00:31:26.153Z,12.80
2022-10-23T00:33:54.431Z,12.90
2022-10-23T00:36:23.318Z,12.80
2022-10-23T00:38:54.973Z,12.90
2022-10-23T00:41:27.939Z,12.90
2022-10-23T00:44:04.408Z,12.90
2022-10-23T00:46:33.396Z,12.90
2022-10-23T00:49:02.075Z,12.90
2022-10-23T00:51:35.396Z,12.90
2022-10-23T00:54:22.833Z,12.90
2022-10-23T00:56:53.082Z,12.70
2022-10-23T00:59:21.073Z,12.80
2022-10-23T01:01:49.314Z,12.80
2022-10-23T01:04:17.904Z,12.80
2022-10-23T01:06:57.758Z,12.80
2022-10-23T01:09:32.839Z,12.80
2022-10-23T01:12:10.070Z,12.80
2022-10-23T01:14:44.933Z,12.80
2022-10-23T01:17:24.824Z,12.80
2022-10-23T01:20:08.405Z,12.80
2022-10-23T01:23:05.479Z,12.80
2022-10-23T01:25:55.485Z,12.80
2022-10-23T01:28:31.180Z,12.80
2022-10-23T01:31:03.496Z,12.70
2022-10-23T01:33:39.387Z,12.80
2022-10-23T01:36:13.854Z,12.90
2022-10-23T01:38:47.168Z,12.90
2022-10-23T01:41:21.210Z,12.90
2022-10-23T01:43:55.999Z,12.90
2022-10-23T01:46:26.006Z,12.80
2022-10-23T01:48:56.066Z,12.90
2022-10-23T01:51:28.596Z,12.80
2022-10-23T01:54:01.249Z,12.80
2022-10-23T01:56:33.244Z,12.80
2022-10-23T01:59:07.533Z,12.90
2022-10-23T02:01:38.413Z,12.80
2022-10-23T02:04:09.659Z,12.80
2022-10-23T02:06:37.751Z,12.80
2022-10-23T02:09:07.404Z,12.90
2022-10-23T02:11:45.379Z,12.90
2022-10-23T02:14:21.872Z,12.90
2022-10-23T02:16:53.911Z,12.90
2022-10-23T02:19:32.069Z,13.00
2022-10-23T02:22:07.947Z,13.00
2022-10-23T02:24:40.672Z,13.00
2022-10-23T02:27:14.126Z,13.00
2022-10-23T02:29:48.173Z,12.90
2022-10-23T02:32:18.047Z,12.90
2022-10-23T02:34:46.062Z,13.00
2022-10-23T02:37:14.072Z,12.90
2022-10-23T02:39:42.609Z,12.90
2022-10-23T02:42:22.060Z,12.90
2022-10-23T02:45:04.740Z,12.90
2022-10-23T02:47:47.774Z,13.00
2022-10-23T02:50:27.785Z,13.00
2022-10-23T02:53:07.048Z,13.00
2022-10-23T02:55:47.789Z,13.00
2022-10-23T02:58:25.520Z,13.00
2022-10-23T03:01:03.598Z,13.00
2022-10-23T03:03:34.946Z,13.00
2022-10-23T03:06:03.109Z,12.90
2022-10-23T03:08:31.192Z,12.90
2022-10-23T03:10:59.250Z,12.80
2022-10-23T03:13:27.358Z,12.80
2022-10-23T03:15:56.683Z,12.90
2022-10-23T03:18:24.708Z,12.90
2022-10-23T03:20:54.403Z,12.80
2022-10-23T03:23:22.504Z,12.80
2022-10-23T03:25:51.685Z,12.70
2022-10-23T03:28:19.615Z,12.70
2022-10-23T03:30:47.593Z,12.80
2022-10-23T03:33:17.056Z,12.80
2022-10-23T03:35:45.337Z,12.80
2022-10-23T03:38:13.353Z,12.70
2022-10-23T03:40:41.320Z,12.70
2022-10-23T03:43:09.312Z,12.80
2022-10-23T03:45:38.413Z,12.80
2022-10-23T03:48:06.841Z,12.80
2022-10-23T03:50:36.964Z,12.90
2022-10-23T03:53:05.024Z,12.80
2022-10-23T03:55:33.101Z,12.80
2022-10-23T03:58:01.092Z,12.80
2022-10-23T04:00:29.138Z,12.80
2022-10-23T04:02:57.118Z,12.70
2022-10-23T04:05:25.088Z,12.60
2022-10-23T04:07:54.357Z,12.40
2022-10-23T04:10:22.367Z,12.50
2022-10-23T04:12:50.353Z,12.50
2022-10-23T04:15:18.509Z,12.70
2022-10-23T04:17:46.565Z,12.70
2022-10-23T04:20:14.551Z,12.60
2022-10-23T04:22:42.762Z,12.60
2022-10-23T04:25:12.339Z,12.60
2022-10-23T04:27:40.432Z,12.50
2022-10-23T04:30:10.508Z,12.60
2022-10-23T04:32:38.515Z,12.50
2022-10-23T04:35:08.514Z,12.40
2022-10-23T04:37:36.486Z,12.50
2022-10-23T04:40:04.964Z,12.60
2022-10-23T04:42:34.293Z,12.60
2022-10-23T04:45:02.409Z,12.60
2022-10-23T04:47:30.424Z,12.60
2022-10-23T04:49:58.438Z,12.70
2022-10-23T04:52:26.484Z,12.70
2022-10-23T04:54:54.626Z,12.60
2022-10-23T04:57:22.738Z,12.50
2022-10-23T04:59:52.076Z,12.50
2022-10-23T05:02:20.050Z,12.50
2022-10-23T05:04:48.050Z,12.60
2022-10-23T05:07:16.085Z,12.50
2022-10-23T05:09:44.244Z,12.50
2022-10-23T05:12:12.243Z,12.50
2022-10-23T05:14:40.237Z,12.50
2022-10-23T05:17:17.931Z,12.50
2022-10-23T05:19:50.749Z,12.40
2022-10-23T05:22:20.694Z,12.30
2022-10-23T05:24:50.544Z,12.30
2022-10-23T05:27:18.911Z,12.30
2022-10-23T05:29:46.940Z,12.30
2022-10-23T05:32:17.954Z,12.40
2022-10-23T05:34:48.827Z,12.40
2022-10-23T05:37:17.834Z,12.40
2022-10-23T05:39:45.947Z,12.40
2022-10-23T05:42:13.940Z,12.40
2022-10-23T05:44:42.196Z,12.40
2022-10-23T05:47:10.219Z,12.40
2022-10-23T05:49:39.643Z,12.40
2022-10-23T05:52:07.723Z,12.40
2022-10-23T05:54:35.734Z,12.40
2022-10-23T05:57:03.859Z,12.40
2022-10-23T05:59:31.918Z,12.30
2022-10-23T06:02:00.033Z,12.20
2022-10-23T06:04:28.235Z,12.20
2022-10-23T06:06:57.575Z,12.20
2022-10-23T06:09:25.708Z,12.20
2022-10-23T06:11:56.636Z,12.00
2022-10-23T06:14:24.633Z,12.00
2022-10-23T06:16:52.670Z,12.00
2022-10-23T06:19:20.651Z,12.10
2022-10-23T06:21:48.639Z,12.20
2022-10-23T06:24:17.964Z,12.20
2022-10-23T06:26:46.551Z,12.00
2022-10-23T06:29:14.572Z,12.10
2022-10-23T06:31:42.635Z,12.00
2022-10-23T06:34:12.956Z,12.00
2022-10-23T06:36:41.149Z,12.00
2022-10-23T06:39:10.247Z,12.00
2022-10-23T06:41:41.969Z,12.10
2022-10-23T06:44:12.891Z,12.20
2022-10-23T06:46:40.905Z,12.20
2022-10-23T06:49:08.972Z,12.20
2022-10-23T06:51:36.999Z,12.30
2022-10-23T06:54:05.373Z,12.10
2022-10-23T06:56:35.014Z,12.20
2022-10-23T06:59:07.601Z,12.20
2022-10-23T07:01:36.816Z,12.50
2022-10-23T07:04:05.139Z,12.50
2022-10-23T07:06:33.132Z,12.60
2022-10-23T07:09:01.256Z,12.70
2022-10-23T07:11:29.236Z,12.80
2022-10-23T07:13:57.249Z,12.80
2022-10-23T07:16:26.611Z,13.00
2022-10-23T07:19:00.912Z,13.10
2022-10-23T07:21:31.265Z,13.40
2022-10-23T07:23:59.788Z,13.40
2022-10-23T07:26:28.323Z,13.60
2022-10-23T07:28:56.691Z,13.60
2022-10-23T07:31:28.322Z,13.60
2022-10-23T07:33:56.659Z,13.70
2022-10-23T07:36:24.722Z,13.90
2022-10-23T07:38:53.356Z,14.20
2022-10-23T07:41:21.643Z,14.30
2022-10-23T07:43:49.730Z,14.40
2022-10-23T07:46:17.793Z,14.50
2022-10-23T07:48:47.171Z,14.50
2022-10-23T07:51:17.009Z,14.70
2022-10-23T07:53:45.778Z,14.90
2022-10-23T07:56:16.630Z,14.90
2022-10-23T07:58:44.636Z,15.10
2022-10-23T08:01:20.599Z,15.10
2022-10-23T08:03:49.977Z,15.20
2022-10-23T08:06:17.952Z,15.30
2022-10-23T08:11:25.681Z,15.30
2022-10-23T08:13:54.666Z,15.10
2022-10-23T08:16:23.431Z,14.90
2022-10-23T08:18:53.458Z,14.60
2022-10-23T08:21:21.520Z,14.60
2022-10-23T08:23:49.732Z,14.90
2022-10-23T08:26:17.996Z,15.10
2022-10-23T08:28:46.049Z,15.10
2022-10-23T08:31:16.394Z,15.50
2022-10-23T08:33:45.015Z,15.70
2022-10-23T08:36:21.092Z,16.00
2022-10-23T08:38:49.592Z,16.50
2022-10-23T08:41:27.398Z,16.80
2022-10-23T08:44:03.796Z,17.10
2022-10-23T08:46:37.059Z,17.20
2022-10-23T08:49:22.080Z,17.10
2022-10-23T08:51:54.602Z,17.10
2022-10-23T08:54:28.799Z,17.00
2022-10-23T08:57:02.701Z,16.90
2022-10-23T08:59:39.743Z,16.90
2022-10-23T09:02:18.704Z,16.80
2022-10-23T09:04:50.640Z,16.90
2022-10-23T09:07:33.985Z,16.70
2022-10-23T09:10:26.694Z,17.00
2022-10-23T09:12:58.385Z,17.00
2022-10-23T09:15:31.247Z,17.00
2022-10-23T09:18:04.658Z,16.90
2022-10-23T09:20:35.156Z,16.40
2022-10-23T09:23:20.187Z,16.40
2022-10-23T09:25:51.846Z,16.30
2022-10-23T09:28:24.170Z,16.40
2022-10-23T09:30:53.271Z,16.50
2022-10-23T09:33:24.187Z,16.60
2022-10-23T09:35:56.870Z,16.70
2022-10-23T09:38:31.533Z,16.60
2022-10-23T09:41:02.904Z,16.20
2022-10-23T09:43:30.919Z,16.20
2022-10-23T09:46:01.471Z,16.20
2022-10-23T09:48:30.173Z,16.40
2022-10-23T09:51:01.291Z,17.00
2022-10-23T09:53:37.678Z,17.80
2022-10-23T09:56:11.788Z,18.20
2022-10-23T09:58:53.391Z,18.70
2022-10-23T10:01:25.606Z,18.70
2022-10-23T10:03:54.279Z,19.40
2022-10-23T10:06:25.823Z,19.40
2022-10-23T10:08:58.105Z,19.10
2022-10-23T10:11:35.015Z,18.90
2022-10-23T10:14:44.973Z,18.60
2022-10-23T10:17:27.189Z,18.10
2022-10-23T10:20:16.630Z,18.00
2022-10-23T10:22:52.898Z,17.70
2022-10-23T10:25:29.368Z,17.70
2022-10-23T10:28:16.622Z,17.90
2022-10-23T10:30:56.105Z,17.60
2022-10-23T10:33:34.853Z,17.50
2022-10-23T10:36:18.333Z,17.60
2022-10-23T10:38:51.453Z,17.40
2022-10-23T10:41:43.776Z,17.40
2022-10-23T10:44:39.571Z,17.40
2022-10-23T10:47:18.582Z,17.30
2022-10-23T10:50:00.901Z,17.10
2022-10-23T10:52:39.655Z,16.90
2022-10-23T10:55:18.916Z,16.80
2022-10-23T10:57:55.817Z,17.10
2022-10-23T11:00:26.042Z,17.00
2022-10-23T11:02:58.923Z,17.10
2022-10-23T11:05:33.252Z,17.10
2022-10-23T11:08:06.933Z,17.20
2022-10-23T11:10:37.443Z,17.20
2022-10-23T11:13:06.786Z,17.30
2022-10-23T11:15:41.384Z,17.50
2022-10-23T11:18:22.515Z,17.40
2022-10-23T11:21:03.101Z,17.50
2022-10-23T11:23:48.221Z,17.50
2022-10-23T11:26:35.242Z,17.70
2022-10-23T11:29:32.106Z,17.70
2022-10-23T11:32:24.569Z,17.50
2022-10-23T11:35:07.007Z,17.60
2022-10-23T11:37:35.360Z,17.50
2022-10-23T11:40:22.219Z,17.50
2022-10-23T11:42:51.613Z,17.40
2022-10-23T11:45:39.258Z,17.30
2022-10-23T11:48:22.813Z,17.70
2022-10-23T11:50:54.893Z,17.70
2022-10-23T11:53:38.881Z,17.70
2022-10-23T11:56:25.252Z,17.80
2022-10-23T11:58:55.459Z,17.80
2022-10-23T12:01:40.838Z,18.30
2022-10-23T12:04:22.570Z,18.40
2022-10-23T12:06:54.028Z,18.60
2022-10-23T12:09:43.217Z,18.70
2022-10-23T12:12:29.162Z,18.90
2022-10-23T12:15:19.760Z,19.00
2022-10-23T12:17:51.844Z,19.40
2022-10-23T12:20:38.610Z,19.60
2022-10-23T12:23:47.355Z,19.60
2022-10-23T12:26:45.659Z,19.60
2022-10-23T12:29:29.568Z,19.60
2022-10-23T12:32:07.939Z,19.70
2022-10-23T12:34:47.815Z,19.70
2022-10-23T12:37:41.928Z,19.80
2022-10-23T12:40:11.892Z,19.70
2022-10-23T12:42:40.073Z,19.80
2022-10-23T12:45:21.774Z,19.90
2022-10-23T12:47:51.335Z,19.90
2022-10-23T12:50:23.644Z,19.60
2022-10-23T12:52:56.835Z,19.10
2022-10-23T12:55:28.817Z,19.00
2022-10-23T12:57:59.244Z,18.80
2022-10-23T13:00:27.277Z,18.60
2022-10-23T13:03:03.262Z,18.60
2022-10-23T13:05:33.753Z,18.50
2022-10-23T13:08:02.350Z,18.20
2022-10-23T13:10:32.033Z,18.30
2022-10-23T13:13:04.618Z,18.40
2022-10-23T13:15:39.980Z,18.40
2022-10-23T13:18:09.661Z,18.40
2022-10-23T13:20:43.185Z,18.50
2022-10-23T13:23:18.966Z,18.50
2022-10-23T13:25:56.066Z,18.50
2022-10-23T13:28:26.984Z,18.50
2022-10-23T13:31:08.895Z,18.40
2022-10-23T13:33:39.613Z,18.40
2022-10-23T13:36:23.722Z,18.50
2022-10-23T13:39:05.091Z,18.50
2022-10-23T13:41:39.346Z,18.50
2022-10-23T13:44:07.706Z,18.50
2022-10-23T13:46:35.679Z,18.60
2022-10-23T13:49:03.627Z,18.70
2022-10-23T13:51:40.143Z,18.80
2022-10-23T13:54:16.193Z,18.80
2022-10-23T13:56:44.257Z,18.90
2022-10-23T13:59:12.827Z,18.90
2022-10-23T14:01:41.953Z,18.70
2022-10-23T14:04:11.197Z,18.60
2022-10-23T14:06:42.055Z,18.70
2022-10-23T14:09:13.872Z,18.70
2022-10-23T14:11:42.478Z,18.90
2022-10-23T14:14:10.698Z,18.80
2022-10-23T14:16:39.147Z,18.90
2022-10-23T14:19:07.877Z,18.90
2022-10-23T14:21:35.917Z,18.80
2022-10-23T14:24:05.450Z,18.60
2022-10-23T14:26:34.247Z,18.70
2022-10-23T14:29:08.951Z,18.80
2022-10-23T14:31:39.467Z,18.80
2022-10-23T14:34:07.475Z,18.70
2022-10-23T14:36:49.339Z,18.40
2022-10-23T14:39:19.455Z,18.50
2022-10-23T14:41:47.577Z,18.50
2022-10-23T14:44:15.539Z,18.50
2022-10-23T14:46:43.471Z,18.50
2022-10-23T14:49:11.449Z,18.40
2022-10-23T14:51:39.431Z,18.40
2022-10-23T14:54:08.753Z,18.20
2022-10-23T14:56:41.055Z,18.20
2022-10-23T14:59:10.698Z,18.30
2022-10-23T15:01:45.096Z,18.30
2022-10-23T15:04:14.722Z,18.20
2022-10-23T15:06:43.762Z,18.20
2022-10-23T15:09:11.961Z,18.20
2022-10-23T15:11:41.403Z,18.20
2022-10-23T15:14:09.572Z,18.20
2022-10-23T15:16:41.470Z,18.30
2022-10-23T15:19:13.737Z,18.20
2022-10-23T15:21:45.447Z,18.10
2022-10-23T15:24:13.407Z,18.10
2022-10-23T15:26:43.287Z,18.20
2022-10-23T15:29:12.177Z,18.00
2022-10-23T15:31:59.296Z,18.00
2022-10-23T15:34:29.582Z,17.80
2022-10-23T15:36:59.186Z,17.90
2022-10-23T15:39:29.308Z,17.90
2022-10-23T15:41:58.833Z,17.80
2022-10-23T15:44:31.650Z,17.90
2022-10-23T15:47:00.105Z,17.80
2022-10-23T15:49:30.293Z,17.50
2022-10-23T15:51:58.978Z,17.50
2022-10-23T15:54:29.387Z,17.50
2022-10-23T15:57:02.372Z,17.40
2022-10-23T15:59:32.072Z,17.40
2022-10-23T16:02:00.684Z,17.40
2022-10-23T16:04:29.461Z,17.40
2022-10-23T16:06:57.838Z,17.40
2022-10-23T16:09:25.835Z,17.40
2022-10-23T16:11:53.841Z,17.10
2022-10-23T16:14:23.142Z,17.00
2022-10-23T16:16:51.109Z,17.10
2022-10-23T16:19:19.291Z,17.20
2022-10-23T16:21:47.272Z,17.30
2022-10-23T16:24:15.278Z,17.00
2022-10-23T16:26:45.424Z,17.10
2022-10-23T16:29:13.421Z,17.00
2022-10-23T16:31:43.139Z,17.00
2022-10-23T16:34:11.981Z,16.60
2022-10-23T16:36:40.129Z,16.60
2022-10-23T16:39:08.873Z,16.60
2022-10-23T16:41:36.820Z,16.60
2022-10-23T16:44:05.348Z,16.50
2022-10-23T16:46:34.004Z,16.40
2022-10-23T16:49:04.290Z,16.40
2022-10-23T16:51:32.557Z,16.40
2022-10-23T16:54:00.620Z,16.60
2022-10-23T16:56:31.881Z,16.60
2022-10-23T16:59:00.871Z,16.50
2022-10-23T17:01:31.390Z,16.40
2022-10-23T17:03:59.685Z,16.40
2022-10-23T17:06:32.150Z,16.40
2022-10-23T17:09:02.031Z,16.30
2022-10-23T17:11:32.066Z,16.40
2022-10-23T17:14:02.928Z,16.40
2022-10-23T17:16:34.818Z,16.40
2022-10-23T17:19:15.801Z,16.60
2022-10-23T17:21:56.686Z,16.30
2022-10-23T17:24:26.642Z,16.30
2022-10-23T17:26:54.937Z,16.30
2022-10-23T17:29:23.210Z,16.30
2022-10-23T17:31:52.078Z,16.30
2022-10-23T17:34:22.866Z,16.40
2022-10-23T17:36:55.695Z,16.40
2022-10-23T17:39:26.926Z,16.40
2022-10-23T17:41:59.050Z,16.40
2022-10-23T17:44:29.123Z,16.50
2022-10-23T17:46:57.331Z,16.40
2022-10-23T17:49:26.066Z,16.40
2022-10-23T17:51:57.732Z,16.40
2022-10-23T17:54:27.970Z,16.40
2022-10-23T17:56:56.329Z,16.40
2022-10-23T17:59:25.121Z,16.40
2022-10-23T18:01:54.807Z,16.50
2022-10-23T18:04:23.066Z,16.50
2022-10-23T18:06:53.907Z,16.50
2022-10-23T18:09:24.121Z,16.50
2022-10-23T18:11:52.774Z,16.40
2022-10-23T18:14:23.060Z,16.30
2022-10-23T18:16:52.466Z,16.30
2022-10-23T18:19:20.657Z,16.30
2022-10-23T18:21:48.991Z,16.40
2022-10-23T18:24:18.713Z,16.10
2022-10-23T18:26:49.047Z,16.10
2022-10-23T18:29:18.290Z,16.00
2022-10-23T18:31:49.082Z,16.10
2022-10-23T18:34:22.868Z,16.00
2022-10-23T18:36:53.681Z,15.80
2022-10-23T18:39:24.986Z,15.80
2022-10-23T18:41:58.462Z,15.90
2022-10-23T18:44:29.215Z,15.80
2022-10-23T18:46:59.148Z,15.90
2022-10-23T18:49:27.349Z,16.00
2022-10-23T18:51:58.678Z,16.00
2022-10-23T18:54:26.823Z,16.00
2022-10-23T18:56:56.226Z,15.90
2022-10-23T18:59:24.610Z,16.10
2022-10-23T19:01:52.809Z,16.10
2022-10-23T19:04:20.923Z,16.10
2022-10-23T19:06:51.281Z,16.10
2022-10-23T19:09:20.086Z,16.10
2022-10-23T19:11:48.079Z,16.10
2022-10-23T19:14:17.459Z,16.20
2022-10-23T19:16:56.545Z,16.00
2022-10-23T19:19:28.386Z,15.90
2022-10-23T19:21:57.633Z,16.00
2022-10-23T19:24:31.689Z,16.00
2022-10-23T19:27:02.029Z,16.10
2022-10-23T19:29:31.909Z,16.10
2022-10-23T19:32:00.164Z,15.90
2022-10-23T19:34:28.369Z,15.90
2022-10-23T19:36:58.236Z,16.00
2022-10-23T19:39:26.485Z,16.00
2022-10-23T19:41:55.164Z,16.10
2022-10-23T19:44:23.379Z,15.80
2022-10-23T19:46:52.684Z,15.60
2022-10-23T19:49:23.702Z,15.60
2022-10-23T19:51:51.762Z,15.60
2022-10-23T19:54:20.285Z,15.70
2022-10-23T19:56:48.800Z,15.80
2022-10-23T19:59:16.842Z,15.80
2022-10-23T20:01:48.124Z,15.80
2022-10-23T20:04:19.018Z,15.80
2022-10-23T20:06:47.815Z,15.80
2022-10-23T20:09:15.814Z,15.90
2022-10-23T20:11:45.144Z,15.90
2022-10-23T20:14:13.903Z,15.70
2022-10-23T20:16:44.684Z,15.70
2022-10-23T20:19:15.379Z,15.80
2022-10-23T20:21:47.797Z,15.90
2022-10-23T20:24:18.407Z,15.90
2022-10-23T20:26:49.173Z,15.90
2022-10-23T20:29:17.188Z,16.00
2022-10-23T20:31:45.306Z,16.00
2022-10-23T20:34:13.663Z,15.90
2022-10-23T20:36:46.794Z,15.90
2022-10-23T20:39:17.892Z,16.00
2022-10-23T20:41:45.984Z,16.00
2022-10-23T20:46:51.100Z,15.90
2022-10-23T20:49:20.379Z,15.90
2022-10-23T20:51:55.222Z,15.80
2022-10-23T20:54:24.427Z,15.90
2022-10-23T20:56:52.447Z,15.90
2022-10-23T20:59:20.667Z,15.90
2022-10-23T21:01:51.257Z,15.90
2022-10-23T21:04:22.162Z,15.60
2022-10-23T21:07:10.841Z,15.70
2022-10-23T21:09:39.843Z,15.50
2022-10-23T21:12:08.980Z,15.60
2022-10-23T21:14:37.965Z,15.60
2022-10-23T21:17:06.283Z,15.80
2022-10-23T21:19:35.012Z,15.80
2022-10-23T21:22:04.652Z,15.80
2022-10-23T21:24:32.832Z,15.60
2022-10-23T21:27:02.620Z,15.60
2022-10-23T21:29:30.784Z,15.70
2022-10-23T21:32:02.067Z,15.80
2022-10-23T21:34:31.915Z,15.70
2022-10-23T21:37:15.553Z,15.70
2022-10-23T21:39:47.039Z,15.70
2022-10-23T21:42:15.796Z,15.70
2022-10-23T21:44:44.274Z,15.60
2022-10-23T21:47:12.270Z,15.70
2022-10-23T21:49:40.365Z,15.70
2022-10-23T21:52:09.213Z,15.50
2022-10-23T21:54:37.220Z,15.50
2022-10-23T21:57:13.577Z,15.50
2022-10-23T21:59:41.725Z,15.40
2022-10-23T22:02:10.233Z,15.30
2022-10-23T22:04:38.880Z,15.20
2022-10-23T22:07:08.102Z,15.30
2022-10-23T22:09:36.067Z,15.30
2022-10-23T22:12:04.244Z,15.10
2022-10-23T22:14:33.778Z,15.00
2022-10-23T22:17:02.096Z,14.90
2022-10-23T22:19:30.475Z,14.90
2022-10-23T22:21:58.694Z,14.80
2022-10-23T22:24:26.810Z,15.00
2022-10-23T22:26:57.070Z,15.10
2022-10-23T22:29:29.337Z,15.00
2022-10-23T22:31:59.610Z,15.00
2022-10-23T22:37:18.747Z,15.00
2022-10-23T22:39:47.180Z,15.00
2022-10-23T22:42:15.151Z,14.90
2022-10-23T22:44:43.121Z,14.90
2022-10-23T22:47:12.472Z,14.90
2022-10-23T22:49:40.461Z,15.00
2022-10-23T22:52:08.530Z,14.90
2022-10-23T22:54:36.538Z,15.00
2022-10-23T22:57:06.507Z,14.90
2022-10-23T22:59:34.515Z,14.80
2022-10-23T23:02:02.563Z,14.70
2022-10-23T23:04:39.471Z,14.70
2022-10-23T23:07:08.649Z,14.70
2022-10-23T23:09:38.893Z,14.80
2022-10-23T23:12:08.898Z,14.70
2022-10-23T23:14:37.495Z,14.70
2022-10-23T23:17:09.183Z,14.60
2022-10-23T23:19:39.035Z,14.50
2022-10-23T23:22:07.081Z,14.60
2022-10-23T23:24:35.149Z,14.50
2022-10-23T23:27:03.250Z,14.60
2022-10-23T23:29:31.241Z,14.60
2022-10-23T23:31:59.350Z,14.60
2022-10-23T23:34:27.486Z,14.60
2022-10-23T23:36:56.773Z,14.70
2022-10-23T23:39:25.978Z,14.50
2022-10-23T23:41:53.946Z,14.50
2022-10-23T23:44:21.882Z,14.50
2022-10-23T23:46:49.832Z,14.50
2022-10-23T23:49:17.842Z,14.50
2022-10-23T23:51:45.888Z,14.60
2022-10-23T23:54:15.485Z,14.50
2022-10-23T23:56:43.469Z,14.50
2022-10-23T23:59:11.577Z,14.50
